Time;durP1;ratioP1;P1;durP2;ratioP2;P2;SDS_P1;SDS_P2;PMS_P1;PMS_P2;Temp;Humidity;BMP_temperature;BMP_pressure;BME280_temperature;BME280_humidity;BME280_pressure;Samples;Min_cycle;Max_cycle;Signal;HPM_P1;HPM_P2
2022/09/25 00:00:42;;;;;;;10.68;7.15;;;;;;;10.19;66.80;100447.75;5049100;28;20044;-26
2022/09/25 00:03:10;;;;;;;11.35;7.32;;;;;;;10.01;68.58;100459.88;5067096;28;20102;-25
2022/09/25 00:05:40;;;;;;;9.97;6.40;;;;;;;9.63;70.10;100459.63;5066915;28;20075;-29
2022/09/25 00:08:07;;;;;;;11.90;6.90;;;;;;;9.55;70.36;100463.28;5067048;28;20263;-26
2022/09/25 00:10:33;;;;;;;12.23;7.50;;;;;;;9.85;68.09;100445.09;5066870;28;20067;-26
2022/09/25 00:12:59;;;;;;;12.52;8.05;;;;;;;9.50;70.43;100468.44;5066858;28;20032;-30
2022/09/25 00:15:25;;;;;;;13.13;8.32;;;;;;;9.42;70.70;100457.97;5066988;28;20059;-28
2022/09/25 00:17:50;;;;;;;16.52;8.50;;;;;;;9.90;69.42;100468.47;5067153;28;20460;-29
2022/09/25 00:20:18;;;;;;;12.90;7.03;;;;;;;9.65;69.79;100463.72;5067050;28;20420;-26
2022/09/25 00:22:44;;;;;;;12.80;7.47;;;;;;;9.72;70.13;100463.72;5067090;28;20056;-28
2022/09/25 00:25:14;;;;;;;12.88;6.95;;;;;;;9.58;70.14;100460.25;5066768;28;20095;-26
2022/09/25 00:27:41;;;;;;;19.83;8.60;;;;;;;9.31;70.40;100442.56;5068334;28;20119;-27
2022/09/25 00:30:08;;;;;;;13.07;7.30;;;;;;;9.30;71.72;100457.72;5070569;28;20037;-31
2022/09/25 00:32:34;;;;;;;13.30;7.03;;;;;;;9.64;69.87;100439.94;5052703;28;20028;-25
2022/09/25 00:34:59;;;;;;;13.10;6.60;;;;;;;9.39;70.72;100426.41;5070763;28;20054;-28
2022/09/25 00:37:27;;;;;;;13.80;7.40;;;;;;;9.44;70.64;100443.41;5071102;28;20032;-27
2022/09/25 00:39:53;;;;;;;11.88;6.35;;;;;;;9.51;70.09;100440.75;5070312;28;20032;-28
2022/09/25 00:42:20;;;;;;;10.18;6.50;;;;;;;9.50;69.89;100447.13;5070532;28;20037;-26
2022/09/25 00:44:58;;;;;;;11.10;7.15;;;;;;;9.67;69.45;100447.56;5070857;28;20484;-26
2022/09/25 00:47:51;;;;;;;8.88;6.32;;;;;;;9.59;70.02;100453.88;5052473;28;20174;-27
2022/09/25 00:50:58;;;;;;;8.57;6.13;;;;;;;9.33;71.42;100459.16;5070373;28;20040;-26
2022/09/25 00:53:28;;;;;;;9.77;6.65;;;;;;;9.40;70.63;100454.69;4988352;28;20494;-26
2022/09/25 00:55:56;;;;;;;10.15;6.32;;;;;;;9.57;69.59;100449.78;4988635;28;20134;-26
2022/09/25 00:58:24;;;;;;;10.05;7.03;;;;;;;9.71;69.19;100453.28;5029691;28;20040;-26
2022/09/25 01:00:51;;;;;;;9.77;6.05;;;;;;;9.27;70.84;100447.47;5070113;28;20028;-29
2022/09/25 01:03:17;;;;;;;12.90;6.95;;;;;;;9.60;69.99;100450.22;5070582;28;20060;-27
2022/09/25 01:05:44;;;;;;;9.25;6.35;;;;;;;9.51;69.35;100446.09;5070141;28;20060;-27
2022/09/25 01:08:14;;;;;;;11.93;6.22;;;;;;;9.32;70.07;100441.56;5070166;28;20025;-27
2022/09/25 01:10:41;;;;;;;8.77;6.05;;;;;;;9.13;71.38;100437.81;5051943;28;20028;-27
2022/09/25 01:13:07;;;;;;;9.82;6.30;;;;;;;8.97;72.43;100438.97;5069997;28;20500;-30
2022/09/25 01:15:53;;;;;;;9.95;6.65;;;;;;;9.07;71.76;100423.44;5069869;28;20025;-27
2022/09/25 01:18:41;;;;;;;10.57;7.05;;;;;;;9.16;71.48;100443.56;5070128;28;20035;-28
2022/09/25 01:21:17;;;;;;;9.80;6.90;;;;;;;9.22;71.21;100445.41;5051757;28;20028;-27
2022/09/25 01:24:01;;;;;;;9.70;6.30;;;;;;;9.28;71.21;100446.47;5070000;28;20457;-27
2022/09/25 01:27:01;;;;;;;12.82;6.82;;;;;;;9.40;70.51;100449.34;5052046;28;20044;-26
2022/09/25 01:29:44;;;;;;;9.07;6.35;;;;;;;9.24;70.61;100450.53;5066444;28;20044;-28
2022/09/25 01:32:18;;;;;;;9.05;6.80;;;;;;;9.53;69.47;100452.03;5069680;28;20062;-27
2022/09/25 01:35:02;;;;;;;9.18;6.30;;;;;;;9.55;69.21;100457.97;5069663;28;20435;-26
2022/09/25 01:37:52;;;;;;;10.60;7.00;;;;;;;9.45;69.79;100449.56;5069707;28;20033;-28
2022/09/25 01:40:36;;;;;;;9.63;6.10;;;;;;;9.21;70.76;100457.09;5068710;28;20082;-26
2022/09/25 01:43:04;;;;;;;11.95;6.88;;;;;;;9.24;70.51;100456.69;5069678;28;20051;-26
2022/09/25 01:45:53;;;;;;;10.13;6.43;;;;;;;8.60;73.10;100449.03;5069520;28;20017;-26
2022/09/25 01:48:25;;;;;;;14.75;6.43;;;;;;;8.41;73.38;100446.06;5068760;28;20044;-27
2022/09/25 01:50:58;;;;;;;11.02;6.18;;;;;;;8.01;74.13;100451.09;5069172;28;20400;-27
2022/09/25 01:53:40;;;;;;;12.65;7.25;;;;;;;8.54;71.76;100450.66;5069321;28;20710;-29
2022/09/25 01:56:55;;;;;;;10.05;6.38;;;;;;;8.33;72.62;100462.13;5069262;28;20097;-26
2022/09/25 01:59:32;;;;;;;9.95;6.53;;;;;;;7.63;74.53;100442.59;5064090;28;20048;-26
2022/09/25 02:02:00;;;;;;;10.43;6.60;;;;;;;7.50;75.14;100453.91;5069353;28;20090;-26
2022/09/25 02:04:29;;;;;;;;;;;;;;;7.68;74.78;100474.69;5069600;28;20040;-25
2022/09/25 02:07:00;;;;;;;8.82;6.15;;;;;;;7.61;74.39;100456.03;5068896;28;19920;-27
2022/09/25 02:09:38;;;;;;;9.88;6.15;;;;;;;7.50;74.48;100437.13;5068550;28;20033;-26
2022/09/25 02:12:33;;;;;;;9.80;6.30;;;;;;;7.96;74.29;100472.06;5069035;28;20107;-27
2022/09/25 02:15:10;;;;;;;9.05;6.03;;;;;;;8.22;72.98;100444.09;5050885;28;20028;-29
2022/09/25 02:20:49;;;;;;;10.60;6.50;;;;;;;8.53;71.81;100464.13;5069022;28;20048;-27
2022/09/25 02:23:22;;;;;;;12.95;6.95;;;;;;;8.72;70.90;100451.97;5068824;28;20078;-27
2022/09/25 02:25:58;;;;;;;12.32;7.18;;;;;;;8.65;71.63;100468.69;5068622;28;20059;-26
2022/09/25 02:28:24;;;;;;;11.88;7.38;;;;;;;8.87;71.07;100470.44;5068583;28;20032;-25
2022/09/25 02:30:53;;;;;;;12.30;7.07;;;;;;;8.88;71.23;100462.28;5050642;28;20423;-28
2022/09/25 02:33:19;;;;;;;10.07;6.72;;;;;;;8.64;72.11;100467.06;5068673;28;20036;-30
2022/09/25 02:35:44;;;;;;;9.90;6.45;;;;;;;8.44;73.11;100463.47;5068561;28;20032;-26
2022/09/25 02:38:10;;;;;;;11.13;6.38;;;;;;;8.75;71.79;100467.53;5068320;28;20359;-28
2022/09/25 02:40:52;;;;;;;9.85;6.50;;;;;;;8.64;72.25;100471.56;5068682;28;20029;-27
2022/09/25 02:43:24;;;;;;;8.52;6.35;;;;;;;8.62;72.52;100473.59;5068637;28;20032;-27
2022/09/25 02:46:02;;;;;;;9.80;6.68;;;;;;;8.55;72.69;100456.78;5068366;28;20027;-28
2022/09/25 02:48:40;;;;;;;10.32;6.78;;;;;;;8.24;73.11;100436.75;5068470;28;20036;-26
2022/09/25 02:51:19;;;;;;;15.00;6.77;;;;;;;8.70;71.52;100460.13;5067937;28;20105;-30
2022/09/25 02:53:54;;;;;;;12.40;7.15;;;;;;;8.62;71.87;100465.59;5068202;28;20131;-26
2022/09/25 02:56:34;;;;;;;11.50;7.80;;;;;;;8.56;71.65;100463.72;5068273;28;20923;-27
2022/09/25 02:59:17;;;;;;;11.70;7.90;;;;;;;8.47;71.43;100476.38;5068303;28;20068;-26
2022/09/25 03:01:46;;;;;;;14.18;9.63;;;;;;;8.45;72.09;100473.91;5068128;28;20036;-28
2022/09/25 03:04:15;;;;;;;20.17;12.82;;;;;;;8.23;73.02;100469.63;5068152;28;20047;-26
2022/09/25 03:06:41;;;;;;;19.73;14.60;;;;;;;8.17;72.43;100449.16;5067960;28;20427;-27
2022/09/25 03:09:09;;;;;;;19.23;12.38;;;;;;;8.37;72.42;100465.22;5067758;28;20028;-25
2022/09/25 03:11:41;;;;;;;19.42;13.00;;;;;;;8.19;73.44;100463.91;5067840;28;20094;-26
2022/09/25 03:14:06;;;;;;;17.73;11.35;;;;;;;7.88;74.94;100450.16;5067434;28;20477;-29
2022/09/25 03:16:45;;;;;;;10.43;7.20;;;;;;;7.60;73.99;100469.50;5068309;28;20024;-27
2022/09/25 03:19:11;;;;;;;14.80;8.88;;;;;;;7.93;73.16;100440.59;5067570;28;20496;-26
2022/09/25 03:21:37;;;;;;;12.60;7.68;;;;;;;7.84;73.36;100473.59;5067643;28;20034;-25
2022/09/25 03:24:02;;;;;;;14.25;8.77;;;;;;;7.22;75.29;100459.94;5067297;28;20026;-26
2022/09/25 03:26:29;;;;;;;14.48;7.90;;;;;;;7.53;75.09;100482.72;5067563;28;20492;-26
2022/09/25 03:28:54;;;;;;;16.20;7.82;;;;;;;7.67;73.48;100458.97;5067543;28;20032;-29
2022/09/25 03:31:20;;;;;;;11.90;8.02;;;;;;;7.77;72.44;100462.94;5067517;28;20112;-28
2022/09/25 03:33:46;;;;;;;16.70;8.95;;;;;;;7.77;73.41;100475.41;5067432;28;20033;-26
2022/09/25 03:36:17;;;;;;;16.27;8.07;;;;;;;7.60;73.65;100464.19;5049379;28;20028;-26
2022/09/25 03:38:44;;;;;;;13.35;7.30;;;;;;;7.65;73.97;100462.63;5067216;28;20024;-27
2022/09/25 03:41:12;;;;;;;14.95;7.13;;;;;;;7.55;74.37;100453.34;5067397;28;20029;-26
2022/09/25 03:43:40;;;;;;;13.50;7.30;;;;;;;7.55;74.78;100456.00;5049223;28;20032;-35
2022/09/25 03:46:08;;;;;;;21.00;7.90;;;;;;;7.73;74.03;100476.78;5067164;28;20278;-27
2022/09/25 03:48:33;;;;;;;21.15;8.52;;;;;;;7.52;74.57;100459.00;5067330;28;20267;-27
2022/09/25 03:51:00;;;;;;;13.60;7.50;;;;;;;7.60;74.55;100467.69;5067113;28;20037;-27
2022/09/25 03:53:26;;;;;;;12.15;7.20;;;;;;;7.63;73.69;100461.16;5067059;28;20023;-29
2022/09/25 03:55:53;;;;;;;15.15;8.02;;;;;;;7.83;72.72;100464.00;5066673;28;20032;-26
2022/09/25 03:58:18;;;;;;;16.23;7.30;;;;;;;7.54;73.89;100460.47;5067641;28;20032;-31
2022/09/25 04:00:45;;;;;;;13.43;7.65;;;;;;;7.88;73.46;100469.56;5067261;28;20040;-25
2022/09/25 04:03:12;;;;;;;13.60;8.50;;;;;;;7.33;74.77;100455.97;5048521;28;20035;-26
2022/09/25 04:05:38;;;;;;;14.05;7.30;;;;;;;7.08;76.11;100455.47;5048602;28;20053;-26
2022/09/25 04:08:04;;;;;;;14.82;6.93;;;;;;;7.00;76.26;100458.25;5066738;28;20412;-26
2022/09/25 04:10:31;;;;;;;14.48;7.40;;;;;;;7.05;76.16;100455.88;5066807;28;20119;-27
2022/09/25 04:12:57;;;;;;;13.15;6.85;;;;;;;6.78;76.59;100433.50;5066879;28;20671;-27
2022/09/25 04:15:22;;;;;;;10.88;7.47;;;;;;;6.49;78.02;100439.66;5067104;28;20033;-29
2022/09/25 04:17:48;;;;;;;9.93;6.57;;;;;;;6.11;78.85;100419.34;5066553;28;20025;-27
2022/09/25 04:20:14;;;;;;;8.57;6.55;;;;;;;6.24;79.29;100453.16;5066954;28;20029;-26
2022/09/25 04:22:39;;;;;;;9.60;6.45;;;;;;;6.31;78.62;100448.75;5066800;28;20034;-27
2022/09/25 04:25:06;;;;;;;9.93;6.95;;;;;;;6.69;77.87;100439.91;5067090;28;20032;-25
2022/09/25 04:27:32;;;;;;;12.10;7.78;;;;;;;7.09;77.14;100472.22;5067167;28;20108;-26
2022/09/25 04:29:57;;;;;;;10.52;6.60;;;;;;;7.06;76.82;100454.84;5066721;28;20120;-26
2022/09/25 04:35:06;;;;;;;11.35;7.55;;;;;;;7.32;77.10;100461.47;5067001;28;20519;-27
2022/09/25 04:37:32;;;;;;;10.35;7.50;;;;;;;7.60;76.40;100496.03;5066450;28;20028;-26
2022/09/25 04:39:57;;;;;;;14.35;7.85;;;;;;;7.75;75.72;100504.78;5066834;28;20047;-27
2022/09/25 04:42:23;;;;;;;12.65;7.45;;;;;;;7.51;75.86;100481.25;5066859;28;20025;-26
2022/09/25 04:44:56;;;;;;;12.13;7.30;;;;;;;7.37;78.17;100474.97;5048288;28;20028;-27
2022/09/25 04:47:23;;;;;;;11.65;7.30;;;;;;;7.60;78.29;100477.47;5067049;28;20403;-28
2022/09/25 04:49:49;;;;;;;15.43;8.18;;;;;;;7.49;79.01;100488.59;5066016;28;20029;-26
2022/09/25 04:52:16;;;;;;;12.52;7.85;;;;;;;7.41;78.76;100439.09;5048566;28;20028;-25
2022/09/25 04:54:42;;;;;;;12.73;7.28;;;;;;;7.39;79.77;100462.34;5066621;28;20025;-28
2022/09/25 04:57:19;;;;;;;11.38;7.88;;;;;;;7.26;80.81;100462.22;5066712;28;20031;-27
2022/09/25 04:59:44;;;;;;;12.07;7.80;;;;;;;7.57;80.53;100464.59;5066471;28;20086;-28
2022/09/25 05:02:11;;;;;;;11.95;7.57;;;;;;;7.72;80.03;100486.56;5066235;28;20024;-25
2022/09/25 05:04:36;;;;;;;16.67;8.27;;;;;;;7.86;79.55;100490.16;5066094;28;20053;-27
2022/09/25 05:07:02;;;;;;;14.60;7.70;;;;;;;7.93;79.32;100490.25;5066636;28;20044;-28
2022/09/25 05:09:29;;;;;;;21.25;8.73;;;;;;;7.93;79.47;100479.63;5066801;28;20067;-27
2022/09/25 05:11:55;;;;;;;16.10;9.10;;;;;;;8.02;78.83;100468.66;5048547;28;20036;-30
2022/09/25 05:14:21;;;;;;;12.65;9.00;;;;;;;8.26;78.68;100501.13;5049397;28;20444;-31
2022/09/25 05:16:47;;;;;;;14.77;8.90;;;;;;;8.27;78.40;100500.09;5069919;28;20520;-26
2022/09/25 05:19:13;;;;;;;12.70;9.43;;;;;;;8.30;78.81;100509.56;5069786;28;20032;-26
2022/09/25 05:21:39;;;;;;;17.17;11.10;;;;;;;8.45;77.68;100497.81;5051974;28;20467;-29
2022/09/25 05:24:07;;;;;;;20.02;13.98;;;;;;;8.44;77.49;100501.50;5069608;28;20021;-26
2022/09/25 05:26:33;;;;;;;15.02;10.68;;;;;;;8.67;77.48;100513.72;5069996;28;20119;-26
2022/09/25 05:28:59;;;;;;;13.80;8.77;;;;;;;8.91;76.13;100514.25;5069756;28;20050;-27
2022/09/25 05:31:25;;;;;;;15.27;8.88;;;;;;;9.01;75.88;100512.03;5069687;28;20488;-29
2022/09/25 05:33:51;;;;;;;19.83;11.18;;;;;;;9.00;76.73;100529.03;5051466;28;20036;-27
2022/09/25 05:36:17;;;;;;;15.57;10.75;;;;;;;8.95;76.82;100515.50;5069766;28;20086;-28
2022/09/25 05:38:43;;;;;;;14.27;9.75;;;;;;;9.21;76.07;100531.59;5051460;28;20020;-26
2022/09/25 05:41:09;;;;;;;12.90;9.18;;;;;;;9.33;75.73;100515.06;5069925;28;20063;-25
2022/09/25 05:43:40;;;;;;;11.70;8.50;;;;;;;9.50;75.69;100529.66;5069426;28;20742;-26
2022/09/25 05:46:05;;;;;;;13.48;8.60;;;;;;;9.74;74.86;100509.63;5069191;28;20055;-26
2022/09/25 05:48:31;;;;;;;12.90;8.73;;;;;;;9.98;72.96;100516.22;5069617;28;20024;-26
2022/09/25 05:50:57;;;;;;;12.27;8.32;;;;;;;9.99;72.95;100515.19;5051443;28;20028;-27
2022/09/25 05:53:24;;;;;;;12.10;8.20;;;;;;;10.19;71.14;100538.34;5069327;28;20021;-26
2022/09/25 05:55:54;;;;;;;12.85;8.32;;;;;;;10.27;71.30;100527.50;5069115;28;20131;-27
2022/09/25 05:58:20;;;;;;;11.88;8.02;;;;;;;10.65;71.13;100537.56;5069181;28;20071;-26
2022/09/25 06:00:46;;;;;;;12.98;7.65;;;;;;;10.66;70.15;100523.19;5069099;28;20086;-25
2022/09/25 06:03:13;;;;;;;12.50;8.57;;;;;;;10.92;70.18;100540.97;5051021;28;20064;-27
2022/09/25 06:05:41;;;;;;;10.90;7.35;;;;;;;11.12;67.18;100538.25;5068854;28;20554;-29
2022/09/25 06:08:07;;;;;;;;;;;;;;;11.30;66.97;100531.41;5051328;28;20036;-27
2022/09/25 06:10:33;;;;;;;13.25;7.82;;;;;;;11.35;67.38;100531.59;5050781;28;19916;-27
2022/09/25 06:13:00;;;;;;;12.23;7.80;;;;;;;11.70;66.58;100539.22;5068966;28;20111;-29
2022/09/25 06:15:27;;;;;;;12.63;7.88;;;;;;;11.72;65.13;100515.78;5068670;28;20024;-26
2022/09/25 06:17:55;;;;;;;11.65;7.82;;;;;;;11.95;63.92;100532.13;5068712;28;20047;-27
2022/09/25 06:20:21;;;;;;;14.48;8.32;;;;;;;11.66;67.94;100512.09;5068911;28;20042;-27
2022/09/25 06:22:58;;;;;;;13.35;8.13;;;;;;;11.71;67.49;100525.66;5068898;28;20515;-25
2022/09/25 06:25:25;;;;;;;16.17;9.48;;;;;;;11.92;67.37;100516.50;5068337;28;20054;-26
2022/09/25 06:28:00;;;;;;;10.82;8.68;;;;;;;12.04;66.69;100509.41;5068459;28;20040;-28
2022/09/25 06:30:33;;;;;;;10.27;7.80;;;;;;;12.43;66.02;100523.50;5050644;28;20047;-28
2022/09/25 06:33:12;;;;;;;10.82;7.45;;;;;;;12.49;64.52;100519.13;5068733;28;20040;-31
2022/09/25 06:35:46;;;;;;;13.43;8.40;;;;;;;12.55;62.93;100523.59;5068539;28;20031;-26
2022/09/25 06:38:13;;;;;;;14.65;7.85;;;;;;;12.90;61.48;100522.22;5050377;28;20036;-28
2022/09/25 06:40:39;;;;;;;10.77;7.78;;;;;;;13.00;60.59;100512.59;5050428;28;20036;-30
2022/09/25 06:43:06;;;;;;;11.07;8.10;;;;;;;13.14;59.87;100513.28;5068607;28;20412;-28
2022/09/25 06:45:33;;;;;;;9.55;7.28;;;;;;;13.34;59.23;100522.94;5050262;28;20036;-25
2022/09/25 06:48:08;;;;;;;13.30;6.78;;;;;;;13.40;60.53;100522.88;5068266;28;20059;-26
2022/09/25 06:50:54;;;;;;;11.73;7.18;;;;;;;13.65;59.37;100497.81;5068137;28;20039;-26
2022/09/25 06:53:22;;;;;;;9.98;6.22;;;;;;;13.83;59.40;100529.06;5068669;28;20043;-27
2022/09/25 06:55:48;;;;;;;13.82;7.30;;;;;;;13.95;59.40;100519.19;5067828;28;20051;-27
2022/09/25 06:58:20;;;;;;;9.05;6.80;;;;;;;14.18;56.94;100514.91;5049994;28;20037;-28
2022/09/25 07:00:46;;;;;;;10.10;6.95;;;;;;;14.01;57.13;100515.59;5068044;28;20947;-28
2022/09/25 07:05:58;;;;;;;11.95;6.93;;;;;;;14.59;57.16;100513.22;5067470;28;20059;-27
2022/09/25 07:08:24;;;;;;;;;;;;;;;14.79;55.45;100523.56;5068491;28;20086;-29
2022/09/25 07:10:51;;;;;;;10.25;6.72;;;;;;;14.79;55.28;100502.94;5067881;28;19924;-27
2022/09/25 07:13:18;;;;;;;12.10;7.28;;;;;;;14.96;54.26;100516.44;5068024;28;20121;-27
2022/09/25 07:15:53;;;;;;;10.98;6.70;;;;;;;14.96;54.62;100504.88;5049507;28;20419;-30
2022/09/25 07:18:20;;;;;;;12.93;7.00;;;;;;;15.22;54.99;100496.28;5067941;28;20484;-26
2022/09/25 07:20:45;;;;;;;12.85;6.80;;;;;;;15.36;55.29;100520.97;5067832;28;20039;-28
2022/09/25 07:23:16;;;;;;;11.90;6.72;;;;;;;15.46;55.10;100513.13;5067492;28;20032;-30
2022/09/25 07:25:42;;;;;;;8.05;5.75;;;;;;;15.46;53.52;100497.00;5067390;28;20024;-30
2022/09/25 07:28:08;;;;;;;8.75;5.72;;;;;;;15.80;52.12;100517.81;5067133;28;20028;-27
2022/09/25 07:30:34;;;;;;;8.20;6.20;;;;;;;16.02;51.40;100525.97;5067659;28;20472;-27
2022/09/25 07:32:59;;;;;;;6.95;4.93;;;;;;;16.30;49.12;100514.28;5067593;28;20028;-26
2022/09/25 07:35:26;;;;;;;6.95;4.70;;;;;;;16.19;49.04;100512.53;5067420;28;20102;-27
2022/09/25 07:37:54;;;;;;;8.70;5.50;;;;;;;16.39;47.48;100512.84;5066323;28;20035;-27
2022/09/25 07:40:19;;;;;;;;;;;;;;;16.52;47.57;100510.84;5068086;28;20060;-29
2022/09/25 07:42:45;;;;;;;8.07;6.18;;;;;;;16.83;48.59;100504.03;5049149;28;20411;-27
2022/09/25 07:45:10;;;;;;;10.63;6.68;;;;;;;16.70;47.89;100505.19;5067270;28;20156;-31
2022/09/25 07:47:36;;;;;;;8.65;5.82;;;;;;;16.81;48.05;100487.31;5067402;28;20513;-26
2022/09/25 07:50:01;;;;;;;10.10;5.88;;;;;;;16.95;48.56;100499.34;5049081;28;20057;-29
2022/09/25 07:52:27;;;;;;;9.25;5.78;;;;;;;17.02;46.88;100488.38;5067297;28;20033;-27
2022/09/25 07:54:52;;;;;;;10.00;6.30;;;;;;;17.25;47.91;100501.59;5067122;28;20028;-27
2022/09/25 07:57:19;;;;;;;13.15;6.72;;;;;;;17.36;47.31;100489.03;5067170;28;20507;-27
2022/09/25 07:59:45;;;;;;;12.15;6.53;;;;;;;17.39;45.60;100496.63;5066801;28;20385;-27
2022/09/25 08:02:11;;;;;;;12.73;7.38;;;;;;;17.25;47.32;100503.47;5048730;28;20424;-28
2022/09/25 08:04:36;;;;;;;10.52;7.00;;;;;;;17.63;46.06;100513.31;5067102;28;20036;-29
2022/09/25 08:07:01;;;;;;;10.15;6.68;;;;;;;17.93;46.34;100517.38;5067039;28;20052;-27
2022/09/25 08:09:27;;;;;;;12.88;7.40;;;;;;;17.87;47.44;100507.63;5049023;28;20031;-26
2022/09/25 08:11:52;;;;;;;9.52;5.95;;;;;;;18.09;46.90;100487.84;5066674;28;20039;-29
2022/09/25 08:14:18;;;;;;;6.40;4.30;;;;;;;17.99;46.32;100489.38;5067119;28;20470;-28
2022/09/25 08:16:43;;;;;;;10.68;5.22;;;;;;;18.59;46.08;100486.53;5067116;28;20033;-27
2022/09/25 08:19:13;;;;;;;8.27;5.53;;;;;;;18.47;44.30;100479.47;5048778;28;20550;-27
2022/09/25 08:21:39;;;;;;;14.55;8.23;;;;;;;18.22;44.84;100473.88;5048536;28;20483;-31
2022/09/25 08:24:04;;;;;;;10.90;6.75;;;;;;;18.33;46.36;100483.69;5066970;28;20025;-27
2022/09/25 08:26:30;;;;;;;11.50;6.57;;;;;;;18.76;45.14;100462.84;5066588;28;20071;-27
2022/09/25 08:28:56;;;;;;;13.43;8.82;;;;;;;19.01;45.72;100472.19;5067130;28;20025;-28
2022/09/25 08:31:22;;;;;;;9.98;5.60;;;;;;;19.10;44.18;100467.06;5066863;28;20024;-27
2022/09/25 08:33:49;;;;;;;7.35;5.05;;;;;;;19.25;45.60;100456.31;5066664;28;20484;-27
2022/09/25 08:36:15;;;;;;;7.60;5.30;;;;;;;19.10;44.60;100467.88;5067175;28;20040;-27
2022/09/25 08:38:41;;;;;;;12.98;6.95;;;;;;;19.44;44.36;100467.41;5066994;28;20040;-27
2022/09/25 08:41:25;;;;;;;11.63;5.72;;;;;;;19.61;43.62;100467.97;5066699;28;20033;-29
2022/09/25 08:43:59;;;;;;;6.95;4.68;;;;;;;19.76;44.34;100466.41;5066490;28;20036;-31
2022/09/25 08:49:23;;;;;;;7.88;4.60;;;;;;;19.65;43.63;100447.41;5069384;28;20416;-28
2022/09/25 08:51:52;;;;;;;8.80;4.38;;;;;;;19.90;43.81;100445.84;5070385;28;20032;-28
2022/09/25 08:54:21;;;;;;;6.95;4.28;;;;;;;20.00;43.40;100423.34;5070706;28;20079;-27
2022/09/25 08:56:54;;;;;;;7.32;4.32;;;;;;;20.16;43.23;100430.34;5070342;28;20071;-27
2022/09/25 08:59:41;;;;;;;5.97;4.10;;;;;;;20.21;43.16;100440.38;5070671;28;20021;-27
2022/09/25 09:02:17;;;;;;;5.78;3.80;;;;;;;20.47;43.16;100416.72;5069845;28;20032;-29
2022/09/25 09:04:50;;;;;;;6.38;3.78;;;;;;;20.82;41.92;100415.81;5070348;28;20036;-28
2022/09/25 09:07:25;;;;;;;7.45;4.30;;;;;;;21.08;42.82;100434.66;5070292;28;20048;-28
2022/09/25 09:10:15;;;;;;;8.82;4.50;;;;;;;20.98;43.52;100434.69;5069972;28;20025;-28
2022/09/25 09:12:49;;;;;;;6.43;3.88;;;;;;;21.11;41.63;100425.97;5070104;28;20028;-27
2022/09/25 09:15:20;;;;;;;6.68;4.07;;;;;;;21.28;41.70;100439.16;5070338;28;20134;-27
2022/09/25 09:17:46;;;;;;;10.30;3.95;;;;;;;21.30;41.50;100425.31;5070004;28;20078;-26
2022/09/25 09:20:17;;;;;;;7.95;4.28;;;;;;;21.48;41.47;100408.38;5069926;28;20048;-27
2022/09/25 09:22:50;;;;;;;5.85;4.22;;;;;;;21.50;41.87;100411.63;5069845;28;20036;-27
2022/09/25 09:25:34;;;;;;;5.95;4.00;;;;;;;21.55;41.06;100406.13;5070339;28;20123;-29
2022/09/25 09:28:26;;;;;;;7.78;3.88;;;;;;;21.34;43.28;100393.81;5051726;28;20117;-28
2022/09/25 09:30:55;;;;;;;5.78;3.92;;;;;;;21.53;42.43;100402.91;5069664;28;20028;-27
2022/09/25 09:33:37;;;;;;;6.85;3.67;;;;;;;21.52;41.43;100404.00;5051564;28;20127;-30
2022/09/25 09:36:22;;;;;;;5.32;3.80;;;;;;;21.50;40.60;100403.47;5051680;28;20769;-27
2022/09/25 09:39:11;;;;;;;6.65;3.90;;;;;;;21.71;41.85;100412.25;5069839;28;20066;-27
2022/09/25 09:41:48;;;;;;;5.85;4.07;;;;;;;22.03;40.73;100408.97;5069518;28;20032;-27
2022/09/25 09:44:21;;;;;;;7.00;3.97;;;;;;;22.26;42.64;100422.91;5069648;28;20036;-28
2022/09/25 09:47:24;;;;;;;7.88;4.10;;;;;;;22.21;41.31;100403.88;5051488;28;20028;-27
2022/09/25 09:50:20;;;;;;;5.47;3.90;;;;;;;22.23;40.29;100402.56;5050863;28;20036;-28
2022/09/25 09:52:50;;;;;;;7.00;4.00;;;;;;;22.56;39.79;100393.75;5063825;28;20044;-27
2022/09/25 09:55:38;;;;;;;5.95;3.78;;;;;;;22.67;38.29;100374.28;5069524;28;20024;-27
2022/09/25 09:58:09;;;;;;;6.10;3.60;;;;;;;22.65;38.99;100365.63;5069039;28;20101;-28
2022/09/25 10:00:37;;;;;;;6.00;3.30;;;;;;;22.02;40.34;100368.53;5068656;28;20040;-28
2022/09/25 10:03:10;;;;;;;;;;;;;;;22.08;41.37;100368.16;5051694;28;20033;-27
2022/09/25 10:05:40;;;;;;;5.88;3.88;;;;;;;22.35;41.23;100366.84;5069111;28;20387;-31
2022/09/25 10:08:08;;;;;;;6.32;4.03;;;;;;;22.61;40.70;100350.19;5050836;28;20058;-28
2022/09/25 10:10:40;;;;;;;6.25;4.00;;;;;;;23.09;38.81;100352.81;5068948;28;20111;-30
2022/09/25 10:13:19;;;;;;;5.88;3.60;;;;;;;22.81;38.06;100352.63;5050781;28;20040;-28
2022/09/25 10:16:10;;;;;;;5.30;3.63;;;;;;;23.03;37.21;100349.34;5069151;28;20484;-30
2022/09/25 10:18:49;;;;;;;8.07;4.00;;;;;;;23.27;37.52;100349.25;5059113;28;20340;-32
2022/09/25 10:21:20;;;;;;;6.90;4.32;;;;;;;23.42;36.79;100347.38;5050552;28;20024;-31
2022/09/25 10:23:45;;;;;;;8.70;4.43;;;;;;;23.22;36.41;100335.72;5068887;28;20487;-30
2022/09/25 10:26:29;;;;;;;5.68;3.28;;;;;;;23.48;36.26;100348.91;5068923;28;20086;-27
2022/09/25 10:29:00;;;;;;;4.95;3.53;;;;;;;23.62;35.82;100327.97;5068817;28;20442;-30
2022/09/25 10:31:35;;;;;;;6.47;3.83;;;;;;;23.58;34.05;100332.41;5068534;28;20024;-27
2022/09/25 10:34:02;;;;;;;5.47;3.30;;;;;;;23.19;33.56;100328.16;5068710;28;20028;-29
2022/09/25 10:36:33;;;;;;;5.00;3.50;;;;;;;23.75;35.29;100328.28;5068718;28;20415;-27
2022/09/25 10:38:58;;;;;;;6.93;4.15;;;;;;;24.06;35.40;100340.25;5068550;28;20060;-29
2022/09/25 10:41:25;;;;;;;4.95;3.63;;;;;;;24.47;33.27;100335.88;5068256;28;20059;-27
2022/09/25 10:44:01;;;;;;;6.80;3.63;;;;;;;24.86;32.19;100338.03;5068310;28;20563;-28
2022/09/25 10:52:07;;;;;;;5.95;3.28;;;;;;;25.15;31.80;100317.72;5068507;28;20043;-28
2022/09/25 10:54:33;;;;;;;4.40;3.25;;;;;;;25.05;31.99;100307.06;5068150;28;20115;-30
2022/09/25 10:57:01;;;;;;;4.82;3.33;;;;;;;25.51;32.46;100325.03;5050361;28;20044;-27
2022/09/25 10:59:28;;;;;;;10.48;3.83;;;;;;;25.31;33.41;100311.91;5068499;28;20035;-31
2022/09/25 11:01:54;;;;;;;5.30;3.25;;;;;;;25.17;31.52;100293.66;5067586;28;20056;-31
2022/09/25 11:04:28;;;;;;;4.32;3.53;;;;;;;25.38;30.92;100304.09;5068159;28;20536;-30
2022/09/25 11:07:06;;;;;;;4.70;3.20;;;;;;;25.59;30.90;100305.16;5049508;28;20141;-29
2022/09/25 11:09:32;;;;;;;5.30;3.50;;;;;;;25.74;30.67;100289.47;5068090;28;20575;-30
2022/09/25 11:12:14;;;;;;;5.00;2.97;;;;;;;25.65;30.61;100292.97;5049674;28;20024;-27
2022/09/25 11:14:54;;;;;;;5.10;3.08;;;;;;;25.60;31.81;100273.19;5068138;28;20440;-28
2022/09/25 11:17:37;;;;;;;4.65;3.08;;;;;;;26.26;30.59;100286.94;5067800;28;20033;-30
2022/09/25 11:20:30;;;;;;;4.40;3.13;;;;;;;26.51;30.00;100263.47;5067550;28;20067;-28
2022/09/25 11:23:17;;;;;;;5.60;3.00;;;;;;;26.93;29.50;100279.41;5067645;28;20396;-28
2022/09/25 11:25:47;;;;;;;5.22;3.30;;;;;;;26.98;29.96;100273.78;5067923;28;20028;-28
2022/09/25 11:28:38;;;;;;;6.05;3.20;;;;;;;26.99;30.47;100268.00;5067959;28;20036;-30
2022/09/25 11:31:21;;;;;;;6.53;3.15;;;;;;;26.79;30.35;100257.72;5046244;28;20568;-27
2022/09/25 11:34:16;;;;;;;4.32;2.72;;;;;;;26.57;30.80;100262.22;5067072;28;20087;-29
2022/09/25 11:37:12;;;;;;;4.63;3.20;;;;;;;26.69;30.43;100263.50;5049627;28;20123;-28
2022/09/25 11:42:44;;;;;;;5.63;3.28;;;;;;;27.29;30.71;100242.66;5067536;28;20066;-30
2022/09/25 11:45:35;;;;;;;5.32;2.90;;;;;;;27.61;29.49;100233.03;5049372;28;20107;-30
2022/09/25 11:48:41;;;;;;;5.07;2.92;;;;;;;27.41;29.81;100229.09;5067037;28;20471;-29
2022/09/25 11:51:26;;;;;;;12.63;11.40;;;;;;;27.28;29.50;100210.91;5067606;28;20102;-29
2022/09/25 11:54:34;;;;;;;25.17;22.70;;;;;;;27.62;29.98;100229.16;5049038;28;20037;-33
2022/09/25 11:57:12;;;;;;;3.80;2.70;;;;;;;28.07;28.31;100203.13;5005220;28;20041;-27
2022/09/25 11:59:40;;;;;;;;;;;;;;;28.18;29.70;100213.38;5063226;28;20036;-33
2022/09/25 12:02:24;;;;;;;6.25;3.90;;;;;;;28.39;29.01;100202.38;5066865;28;19909;-29
2022/09/25 12:05:17;;;;;;;9.48;6.63;;;;;;;28.59;29.55;100221.94;5049194;28;20029;-28
2022/09/25 12:08:03;;;;;;;5.13;3.00;;;;;;;28.07;28.78;100203.13;5067009;28;20898;-27